Time;durP1;ratioP1;P1;durP2;ratioP2;P2;SDS_P1;SDS_P2;PMS_P1;PMS_P2;Temp;Humidity;BMP_temperature;BMP_pressure;BME280_temperature;BME280_humidity;BME280_pressure;Samples;Min_cycle;Max_cycle;Signal;HPM_P1;HPM_P2
2023/05/09 00:01:11;;;;;;;11.70;8.30;;;15.00;99.90;;;;;;5074485;28;20179;-70
2023/05/09 00:03:37;;;;;;;9.70;8.20;;;15.10;99.90;;;;;;5074805;28;20186;-70
2023/05/09 00:06:04;;;;;;;10.73;8.90;;;15.10;99.90;;;;;;5074775;28;20164;-70
2023/05/09 00:08:30;;;;;;;11.07;8.47;;;15.10;99.90;;;;;;5074634;28;20247;-69
2023/05/09 00:10:55;;;;;;;10.33;8.03;;;15.10;99.90;;;;;;5074620;28;20204;-69
2023/05/09 00:13:22;;;;;;;11.07;8.30;;;15.00;99.90;;;;;;5074606;28;20196;-69
2023/05/09 00:15:48;;;;;;;9.00;7.90;;;15.00;99.90;;;;;;5074177;28;20231;-69
2023/05/09 00:18:14;;;;;;;11.20;8.60;;;14.90;99.90;;;;;;5074356;28;20208;-69
2023/05/09 00:20:43;;;;;;;11.30;8.87;;;14.90;99.90;;;;;;5074372;28;20220;-69
2023/05/09 00:23:08;;;;;;;9.80;8.80;;;15.00;99.90;;;;;;5074546;28;20176;-69
2023/05/09 00:25:34;;;;;;;11.50;8.30;;;15.00;99.90;;;;;;5074575;28;20165;-69
2023/05/09 00:28:00;;;;;;;8.90;8.00;;;15.00;99.90;;;;;;5056613;28;20191;-69
2023/05/09 00:30:26;;;;;;;10.80;8.13;;;15.00;99.90;;;;;;5056259;28;20176;-69
2023/05/09 00:32:51;;;;;;;10.23;8.30;;;15.00;99.90;;;;;;5074101;28;20694;-69
2023/05/09 00:35:18;;;;;;;9.90;8.17;;;15.10;99.90;;;;;;5074176;28;20297;-69
2023/05/09 00:37:44;;;;;;;8.50;7.73;;;15.20;99.90;;;;;;5074140;28;20693;-69
2023/05/09 00:40:10;;;;;;;9.87;7.50;;;15.20;99.90;;;;;;5074360;28;20173;-70
2023/05/09 00:42:36;;;;;;;11.23;7.90;;;15.20;99.90;;;;;;5074328;28;20168;-71
2023/05/09 00:45:02;;;;;;;11.17;8.10;;;15.30;99.90;;;;;;5073831;28;20223;-70
2023/05/09 00:47:28;;;;;;;10.33;7.60;;;15.30;99.90;;;;;;5056135;28;20340;-70
2023/05/09 00:49:56;;;;;;;8.63;7.73;;;15.30;99.90;;;;;;5056071;28;20596;-70
2023/05/09 00:52:24;;;;;;;11.17;7.83;;;15.30;99.90;;;;;;5073515;28;20196;-70
2023/05/09 00:54:55;;;;;;;8.93;7.83;;;15.30;99.90;;;;;;5055936;28;20269;-69
2023/05/09 00:57:23;;;;;;;10.37;7.17;;;15.30;99.90;;;;;;5055481;28;20179;-69
2023/05/09 00:59:49;;;;;;;8.23;7.43;;;15.30;99.90;;;;;;5055922;28;20263;-68
2023/05/09 01:02:16;;;;;;;11.27;7.80;;;15.30;99.90;;;;;;5073762;28;20688;-69
2023/05/09 01:04:43;;;;;;;10.30;7.97;;;15.30;99.90;;;;;;5073598;28;20164;-69
2023/05/09 01:07:20;;;;;;;8.43;7.20;;;15.30;99.90;;;;;;5055671;28;20230;-68
2023/05/09 01:09:59;;;;;;;9.63;7.63;;;15.20;99.90;;;;;;5057087;28;20214;-69
2023/05/09 01:12:43;;;;;;;8.63;7.50;;;15.20;99.90;;;;;;5073041;28;20172;-70
2023/05/09 01:15:27;;;;;;;9.67;7.27;;;15.20;99.90;;;;;;5073499;28;20176;-70
2023/05/09 01:17:59;;;;;;;9.33;7.83;;;15.20;99.90;;;;;;5055676;28;20558;-70
2023/05/09 01:20:30;;;;;;;8.43;7.40;;;15.20;99.90;;;;;;5073145;28;20238;-69
2023/05/09 01:23:03;;;;;;;7.87;7.10;;;15.20;99.90;;;;;;5073468;28;20575;-70
2023/05/09 01:25:47;;;;;;;9.40;7.70;;;15.20;99.90;;;;;;5073305;28;20169;-69
2023/05/09 01:28:22;;;;;;;8.53;7.50;;;15.20;99.90;;;;;;5072887;28;20616;-68
2023/05/09 01:30:52;;;;;;;8.63;7.83;;;15.20;99.90;;;;;;5055446;28;20222;-68
2023/05/09 01:33:20;;;;;;;9.57;8.03;;;15.20;99.90;;;;;;5073129;28;20676;-69
2023/05/09 01:36:03;;;;;;;11.27;8.13;;;15.20;99.90;;;;;;5073346;28;20215;-69
2023/05/09 01:38:30;;;;;;;9.40;7.03;;;15.20;99.90;;;;;;5055961;28;20168;-69
2023/05/09 01:40:58;;;;;;;9.60;7.47;;;15.20;99.90;;;;;;5055468;28;20255;-69
2023/05/09 01:43:27;;;;;;;10.87;7.37;;;15.20;99.90;;;;;;5073033;28;20169;-69
2023/05/09 01:45:54;;;;;;;8.17;6.83;;;15.20;99.90;;;;;;5073138;28;20176;-69
2023/05/09 01:48:25;;;;;;;10.57;7.50;;;15.30;99.90;;;;;;5055199;28;20263;-69
2023/05/09 01:50:52;;;;;;;8.40;6.97;;;15.30;99.90;;;;;;5055184;28;20214;-69
2023/05/09 01:53:20;;;;;;;8.87;7.03;;;15.20;99.90;;;;;;5054996;28;20216;-69
2023/05/09 01:55:47;;;;;;;8.27;7.47;;;15.20;99.90;;;;;;5054716;28;20173;-69
2023/05/09 01:58:15;;;;;;;9.60;7.07;;;15.20;99.90;;;;;;5072960;28;20210;-69
2023/05/09 02:00:41;;;;;;;9.23;7.30;;;15.20;99.90;;;;;;5073066;28;20168;-69
2023/05/09 02:03:08;;;;;;;14.33;7.20;;;15.30;99.90;;;;;;5072996;28;20203;-69
2023/05/09 02:05:35;;;;;;;10.00;7.67;;;15.30;99.90;;;;;;5075779;28;20172;-69
2023/05/09 02:08:01;;;;;;;9.13;7.20;;;15.30;99.90;;;;;;5077187;28;20176;-69
2023/05/09 02:10:28;;;;;;;8.30;7.07;;;15.40;99.90;;;;;;5076693;28;20183;-69
2023/05/09 02:12:54;;;;;;;9.37;7.33;;;15.40;99.90;;;;;;5077053;28;20254;-69
2023/05/09 02:15:21;;;;;;;9.03;6.90;;;15.40;99.90;;;;;;5077081;28;20179;-69
2023/05/09 02:17:46;;;;;;;9.40;6.77;;;15.40;99.90;;;;;;5058941;28;20652;-71
2023/05/09 02:20:12;;;;;;;9.00;6.67;;;15.40;99.90;;;;;;5076407;28;20239;-69
2023/05/09 02:22:42;;;;;;;10.73;7.53;;;15.40;99.90;;;;;;5077182;28;20621;-69
2023/05/09 02:25:13;;;;;;;10.57;7.50;;;15.30;99.90;;;;;;5076296;28;20676;-69
2023/05/09 02:27:40;;;;;;;11.33;7.27;;;15.30;99.90;;;;;;5076933;28;20624;-69
2023/05/09 02:30:10;;;;;;;9.20;7.00;;;15.30;99.90;;;;;;5076723;28;20176;-70
2023/05/09 02:32:37;;;;;;;8.57;7.30;;;15.20;99.90;;;;;;5058540;28;20196;-69
2023/05/09 02:35:05;;;;;;;8.50;7.60;;;15.20;99.90;;;;;;5076551;28;20248;-69
2023/05/09 02:37:31;;;;;;;9.33;7.33;;;15.30;99.90;;;;;;5076509;28;20169;-68
2023/05/09 02:39:57;;;;;;;11.17;7.50;;;15.30;99.90;;;;;;5076083;28;20169;-70
2023/05/09 02:42:24;;;;;;;9.97;7.07;;;15.30;99.90;;;;;;5076422;28;20529;-69
2023/05/09 02:44:53;;;;;;;9.03;7.37;;;15.30;99.90;;;;;;5076378;28;20648;-68
2023/05/09 02:47:20;;;;;;;8.43;6.97;;;15.40;99.90;;;;;;5076174;28;20196;-68
2023/05/09 02:49:46;;;;;;;9.07;7.07;;;15.50;99.90;;;;;;5058323;28;20215;-69
2023/05/09 02:52:12;;;;;;;9.57;7.70;;;15.50;99.90;;;;;;5076270;28;20238;-69
2023/05/09 02:54:38;;;;;;;10.20;7.93;;;15.50;99.90;;;;;;5075932;28;20212;-70
2023/05/09 02:57:04;;;;;;;9.47;7.60;;;15.60;99.90;;;;;;5075951;28;20168;-69
2023/05/09 02:59:29;;;;;;;9.33;7.27;;;15.60;99.90;;;;;;5075787;28;20235;-70
2023/05/09 03:01:55;;;;;;;9.07;8.17;;;15.60;99.90;;;;;;5075938;28;20671;-69
2023/05/09 03:04:21;;;;;;;9.30;8.00;;;15.60;99.90;;;;;;5075965;28;20214;-69
2023/05/09 03:06:47;;;;;;;9.13;7.97;;;15.50;99.90;;;;;;5075815;28;20187;-69
2023/05/09 03:09:13;;;;;;;8.80;7.57;;;15.50;99.90;;;;;;5075660;28;20204;-70
2023/05/09 03:11:38;;;;;;;12.50;7.77;;;15.50;99.90;;;;;;5057830;28;20175;-69
2023/05/09 03:14:05;;;;;;;10.00;8.23;;;15.50;99.90;;;;;;5057764;28;20295;-70
2023/05/09 03:16:30;;;;;;;10.33;8.97;;;15.50;99.90;;;;;;5075505;28;20184;-70
2023/05/09 03:18:56;;;;;;;9.80;8.20;;;15.50;99.90;;;;;;5075045;28;20636;-69
2023/05/09 03:21:22;;;;;;;9.53;8.33;;;15.50;99.90;;;;;;5075078;28;20181;-69
2023/05/09 03:23:47;;;;;;;10.70;8.23;;;15.50;99.90;;;;;;5075393;28;20164;-69
2023/05/09 03:26:13;;;;;;;9.20;8.30;;;15.50;99.90;;;;;;5075265;28;20251;-69
2023/05/09 03:28:40;;;;;;;9.80;8.73;;;15.50;99.90;;;;;;5075249;28;20211;-69
2023/05/09 03:31:05;;;;;;;10.93;8.73;;;15.50;99.90;;;;;;5075260;28;20168;-69
2023/05/09 03:33:31;;;;;;;10.57;8.00;;;15.60;99.90;;;;;;5075247;28;20215;-71
2023/05/09 03:35:56;;;;;;;10.13;8.40;;;15.60;99.90;;;;;;5074774;28;20175;-69
2023/05/09 03:38:25;;;;;;;9.97;8.77;;;15.60;99.90;;;;;;5074742;28;20196;-69
2023/05/09 03:40:52;;;;;;;11.13;8.40;;;15.60;99.90;;;;;;5075517;28;20612;-68
2023/05/09 03:43:18;;;;;;;11.03;8.83;;;15.60;99.90;;;;;;5074867;28;20175;-68
2023/05/09 03:45:44;;;;;;;8.83;8.03;;;15.60;99.90;;;;;;5075199;28;20176;-69
2023/05/09 03:48:10;;;;;;;10.57;9.47;;;15.60;99.90;;;;;;5074871;28;20536;-69
2023/05/09 03:50:36;;;;;;;9.73;8.53;;;15.60;99.90;;;;;;5074782;28;20242;-68
2023/05/09 03:53:01;;;;;;;11.47;9.20;;;15.50;99.90;;;;;;5074017;28;20265;-69
2023/05/09 03:55:27;;;;;;;10.03;9.03;;;15.50;99.90;;;;;;5074336;28;20172;-69
2023/05/09 03:57:53;;;;;;;11.87;9.27;;;15.50;99.90;;;;;;5074903;28;20321;-69
2023/05/09 04:00:20;;;;;;;10.20;9.03;;;15.50;99.90;;;;;;5074737;28;20204;-69
2023/05/09 04:02:46;;;;;;;10.00;8.43;;;15.50;99.90;;;;;;5075011;28;20176;-69
2023/05/09 04:05:12;;;;;;;10.63;9.53;;;15.50;99.90;;;;;;5074096;28;20199;-69
2023/05/09 04:07:38;;;;;;;10.40;9.27;;;15.50;99.90;;;;;;5056348;28;20620;-69
2023/05/09 04:10:05;;;;;;;11.83;9.37;;;15.60;99.90;;;;;;5074355;28;20177;-69
2023/05/09 04:12:30;;;;;;;10.00;8.93;;;15.60;99.90;;;;;;5074185;28;20184;-69
2023/05/09 04:14:56;;;;;;;14.10;10.10;;;15.60;99.90;;;;;;5074419;28;20167;-70
2023/05/09 04:17:21;;;;;;;10.47;9.37;;;15.60;99.90;;;;;;5074282;28;20192;-69
2023/05/09 04:19:47;;;;;;;11.40;10.20;;;15.60;99.90;;;;;;5074179;28;20267;-69
2023/05/09 04:22:13;;;;;;;9.50;8.60;;;15.60;99.90;;;;;;5073749;28;20525;-69
2023/05/09 04:24:38;;;;;;;10.27;9.27;;;15.50;99.90;;;;;;5056203;28;20226;-69
2023/05/09 04:27:04;;;;;;;10.40;9.33;;;15.50;99.90;;;;;;5073154;28;20218;-70
2023/05/09 04:29:30;;;;;;;10.33;9.33;;;15.50;99.90;;;;;;5074037;28;20620;-70
2023/05/09 04:31:56;;;;;;;10.17;8.97;;;15.50;99.90;;;;;;5074272;28;20172;-70
2023/05/09 04:34:22;;;;;;;11.27;9.33;;;15.40;99.90;;;;;;5055688;28;20239;-70
2023/05/09 04:36:48;;;;;;;10.60;9.40;;;15.40;99.90;;;;;;5055121;28;20573;-70
2023/05/09 04:39:13;;;;;;;9.73;8.73;;;15.40;99.90;;;;;;5073885;28;20176;-70
2023/05/09 04:41:39;;;;;;;10.23;9.23;;;15.40;99.90;;;;;;5056017;28;20264;-70
2023/05/09 04:44:05;;;;;;;12.93;9.77;;;15.50;99.90;;;;;;5055269;28;20181;-70
2023/05/09 04:46:30;;;;;;;10.60;9.57;;;15.50;99.90;;;;;;5073382;28;20203;-70
2023/05/09 04:48:56;;;;;;;11.07;9.53;;;15.50;99.90;;;;;;5073284;28;20176;-69
2023/05/09 04:51:22;;;;;;;11.13;9.50;;;15.60;99.90;;;;;;5072936;28;20513;-68
2023/05/09 04:53:47;;;;;;;10.73;9.63;;;15.50;99.90;;;;;;5054759;28;20712;-69
2023/05/09 04:56:13;;;;;;;9.70;8.80;;;15.60;99.90;;;;;;5073393;28;20247;-69
2023/05/09 04:58:39;;;;;;;12.00;9.40;;;15.60;99.90;;;;;;5073449;28;20172;-69
2023/05/09 05:01:05;;;;;;;10.10;9.03;;;15.60;99.90;;;;;;5073054;28;20180;-69
2023/05/09 05:03:32;;;;;;;11.30;8.97;;;15.60;99.90;;;;;;5073092;28;20176;-69
2023/05/09 05:05:58;;;;;;;10.33;9.33;;;15.60;99.90;;;;;;5073014;28;20176;-70
2023/05/09 05:08:24;;;;;;;10.07;9.07;;;15.60;99.90;;;;;;5073206;28;20210;-70
2023/05/09 05:10:50;;;;;;;15.60;10.33;;;15.60;99.90;;;;;;5072763;28;20755;-70
2023/05/09 05:13:16;;;;;;;9.80;8.87;;;15.60;99.90;;;;;;5072337;28;20287;-70
2023/05/09 05:15:42;;;;;;;12.80;9.47;;;15.50;99.90;;;;;;5073136;28;20175;-70
2023/05/09 05:18:07;;;;;;;12.10;10.40;;;15.40;99.90;;;;;;5072624;28;20200;-69
2023/05/09 05:20:33;;;;;;;11.20;9.90;;;15.30;99.90;;;;;;5050582;28;20225;-69
2023/05/09 05:23:00;;;;;;;15.17;10.37;;;15.30;99.90;;;;;;5052194;28;20244;-71
2023/05/09 05:25:25;;;;;;;10.80;9.33;;;15.20;99.90;;;;;;5052630;28;20181;-70
2023/05/09 05:27:51;;;;;;;11.03;9.93;;;15.10;99.90;;;;;;5052734;28;20231;-70
2023/05/09 05:30:17;;;;;;;11.30;9.47;;;15.00;99.90;;;;;;5052761;28;20177;-70
2023/05/09 05:32:43;;;;;;;11.57;9.80;;;15.00;99.90;;;;;;5052359;28;20180;-68
2023/05/09 05:35:12;;;;;;;11.07;8.77;;;15.10;99.90;;;;;;5052142;28;20177;-70
2023/05/09 05:37:39;;;;;;;12.03;8.57;;;15.00;99.90;;;;;;5052841;28;20169;-71
2023/05/09 05:40:05;;;;;;;11.73;9.87;;;15.10;99.90;;;;;;5052121;28;20183;-69
2023/05/09 05:42:31;;;;;;;11.33;8.73;;;15.10;99.90;;;;;;5051612;28;20374;-69
2023/05/09 05:45:03;;;;;;;10.60;9.33;;;15.10;99.90;;;;;;5052193;28;20205;-70
2023/05/09 05:47:32;;;;;;;11.17;9.63;;;15.10;99.90;;;;;;5051859;28;20637;-68
2023/05/09 05:49:59;;;;;;;9.73;8.83;;;15.10;99.90;;;;;;5052047;28;20173;-69
2023/05/09 05:52:25;;;;;;;10.47;9.20;;;15.10;99.90;;;;;;5051365;28;20235;-70
2023/05/09 05:54:52;;;;;;;10.07;9.07;;;15.00;99.90;;;;;;5051932;28;20235;-70
2023/05/09 05:57:18;;;;;;;9.23;8.33;;;15.10;99.90;;;;;;5050249;28;20235;-70
2023/05/09 05:59:45;;;;;;;11.60;9.13;;;15.00;99.90;;;;;;5051841;28;20174;-70
2023/05/09 06:02:11;;;;;;;10.67;8.70;;;15.10;99.90;;;;;;5051778;28;20215;-70
2023/05/09 06:04:36;;;;;;;9.63;8.87;;;15.20;99.90;;;;;;5051854;28;20249;-70
2023/05/09 06:07:02;;;;;;;10.23;9.20;;;15.20;99.90;;;;;;5050406;28;20531;-71
2023/05/09 06:09:27;;;;;;;11.13;8.53;;;15.20;99.90;;;;;;5052469;28;20176;-70
2023/05/09 06:11:53;;;;;;;9.50;8.50;;;15.30;99.90;;;;;;5051348;28;20503;-71
2023/05/09 06:14:19;;;;;;;9.60;8.27;;;15.30;99.90;;;;;;5050714;28;20729;-70
2023/05/09 06:16:44;;;;;;;11.50;8.70;;;15.40;99.90;;;;;;5051667;28;20683;-70
2023/05/09 06:19:10;;;;;;;9.90;8.90;;;15.50;99.90;;;;;;5054225;28;20193;-69
2023/05/09 06:21:35;;;;;;;9.33;8.40;;;15.60;99.90;;;;;;5053494;28;20310;-70
2023/05/09 06:24:02;;;;;;;9.60;8.70;;;15.60;99.90;;;;;;5071956;28;20168;-70
2023/05/09 06:26:28;;;;;;;9.57;8.57;;;15.60;99.90;;;;;;5071779;28;20184;-70
2023/05/09 06:28:54;;;;;;;10.53;8.07;;;15.70;99.90;;;;;;5071450;28;20207;-70
2023/05/09 06:31:20;;;;;;;10.43;8.20;;;15.80;99.90;;;;;;5071483;28;20268;-70
2023/05/09 06:33:46;;;;;;;9.83;8.40;;;15.90;99.90;;;;;;5071333;28;20283;-70
2023/05/09 06:36:11;;;;;;;10.47;8.57;;;15.90;99.90;;;;;;5071492;28;20565;-71
2023/05/09 06:38:37;;;;;;;12.60;7.53;;;16.00;99.90;;;;;;5053549;28;20259;-71
2023/05/09 06:41:02;;;;;;;10.23;7.80;;;16.00;99.90;;;;;;5071807;28;20168;-71
2023/05/09 06:43:28;;;;;;;12.07;8.47;;;16.00;99.90;;;;;;5071394;28;20161;-71
2023/05/09 06:45:53;;;;;;;13.13;8.33;;;16.10;99.90;;;;;;5071515;28;20164;-71
2023/05/09 06:48:19;;;;;;;10.93;7.63;;;16.20;99.90;;;;;;5052849;28;20173;-70
2023/05/09 06:50:45;;;;;;;15.73;8.00;;;16.20;99.90;;;;;;5072645;28;20164;-71
2023/05/09 06:53:11;;;;;;;9.63;7.30;;;16.10;99.90;;;;;;5075013;28;20196;-73
2023/05/09 06:55:36;;;;;;;8.17;7.23;;;16.10;99.90;;;;;;5074718;28;20624;-71
2023/05/09 06:58:02;;;;;;;8.07;7.27;;;16.20;99.90;;;;;;5074726;28;20180;-71
2023/05/09 07:00:28;;;;;;;8.47;7.53;;;16.10;99.90;;;;;;5074613;28;20615;-70
2023/05/09 07:02:54;;;;;;;8.97;7.53;;;16.10;99.90;;;;;;5056280;28;20267;-72
2023/05/09 07:05:20;;;;;;;8.00;6.87;;;16.10;99.90;;;;;;5074734;28;20172;-70
2023/05/09 07:07:45;;;;;;;8.60;7.60;;;16.00;99.90;;;;;;5056918;28;20179;-70
2023/05/09 07:10:11;;;;;;;8.37;7.57;;;16.10;99.90;;;;;;5075633;28;20218;-70
2023/05/09 07:12:37;;;;;;;9.83;7.53;;;16.20;99.90;;;;;;5074295;28;20554;-70
2023/05/09 07:15:02;;;;;;;7.97;7.20;;;16.20;99.90;;;;;;5074775;28;20185;-71
2023/05/09 07:17:29;;;;;;;7.83;7.03;;;16.10;99.90;;;;;;5075114;28;20515;-70
2023/05/09 07:19:54;;;;;;;8.13;7.30;;;16.00;99.90;;;;;;5074722;28;20228;-71
2023/05/09 07:22:20;;;;;;;9.30;7.70;;;15.90;99.90;;;;;;5074926;28;20627;-70
2023/05/09 07:24:46;;;;;;;8.97;8.27;;;15.90;99.90;;;;;;5074958;28;20555;-71
2023/05/09 07:27:12;;;;;;;11.13;8.10;;;15.80;99.90;;;;;;5074407;28;20220;-70
2023/05/09 07:29:37;;;;;;;9.77;8.07;;;15.80;99.90;;;;;;5056972;28;20169;-70
2023/05/09 07:32:03;;;;;;;8.77;7.90;;;15.70;99.90;;;;;;5073822;28;20254;-71
2023/05/09 07:34:29;;;;;;;9.93;8.67;;;15.80;99.90;;;;;;5068734;28;20204;-72
2023/05/09 07:36:54;;;;;;;9.30;8.40;;;15.80;99.90;;;;;;5074293;28;20195;-72
2023/05/09 07:39:20;;;;;;;10.23;8.27;;;15.80;99.90;;;;;;5073922;28;20180;-70
2023/05/09 07:41:46;;;;;;;10.47;8.40;;;15.70;99.90;;;;;;5074554;28;20165;-72
2023/05/09 07:44:11;;;;;;;9.53;8.50;;;15.80;99.90;;;;;;5055249;28;20183;-72
2023/05/09 07:46:39;;;;;;;8.63;7.80;;;15.90;99.90;;;;;;5073766;28;20172;-72
2023/05/09 07:49:05;;;;;;;8.03;7.20;;;15.90;99.90;;;;;;5073295;28;20290;-72
2023/05/09 07:51:31;;;;;;;7.83;7.13;;;15.80;99.90;;;;;;5073910;28;20180;-72
2023/05/09 07:53:56;;;;;;;8.47;7.57;;;15.80;99.90;;;;;;5073690;28;20624;-72
2023/05/09 07:56:22;;;;;;;8.13;7.33;;;15.80;99.90;;;;;;5073045;28;20535;-70
2023/05/09 07:58:48;;;;;;;7.67;6.90;;;15.90;99.90;;;;;;5073897;28;20222;-72
2023/05/09 08:01:14;;;;;;;8.20;7.40;;;15.80;99.90;;;;;;5073832;28;20169;-71
2023/05/09 08:03:40;;;;;;;8.80;7.37;;;15.80;99.90;;;;;;5072584;28;20540;-72
2023/05/09 08:06:06;;;;;;;7.60;6.93;;;15.70;99.90;;;;;;5055913;28;20230;-71
2023/05/09 08:08:32;;;;;;;8.60;7.60;;;15.60;99.90;;;;;;5073082;28;20189;-72
2023/05/09 08:10:57;;;;;;;7.93;7.20;;;15.60;99.90;;;;;;5073573;28;20180;-71
2023/05/09 08:13:23;;;;;;;11.07;7.30;;;15.50;99.90;;;;;;5072760;28;20675;-71
2023/05/09 08:15:49;;;;;;;7.40;6.53;;;15.60;99.90;;;;;;5073720;28;20620;-71
2023/05/09 08:18:15;;;;;;;7.80;7.07;;;15.50;99.90;;;;;;5072650;28;20281;-71
2023/05/09 08:20:41;;;;;;;10.23;8.00;;;15.40;99.90;;;;;;5072927;28;20224;-72
2023/05/09 08:23:06;;;;;;;8.07;7.33;;;15.40;99.90;;;;;;5073309;28;20190;-72
2023/05/09 08:25:32;;;;;;;8.73;7.87;;;15.40;99.90;;;;;;5073116;28;20208;-71
2023/05/09 08:27:58;;;;;;;8.90;8.00;;;15.40;99.90;;;;;;5072758;28;20179;-72
2023/05/09 08:30:24;;;;;;;10.40;8.10;;;15.40;99.90;;;;;;5072984;28;20176;-71
2023/05/09 08:32:49;;;;;;;10.93;8.10;;;15.40;99.90;;;;;;5072816;28;20177;-72
2023/05/09 08:35:15;;;;;;;9.20;8.30;;;15.50;99.90;;;;;;5072790;28;20521;-70
2023/05/09 08:37:41;;;;;;;11.73;8.43;;;15.50;99.90;;;;;;5072832;28;20211;-70
2023/05/09 08:40:07;;;;;;;7.70;7.00;;;15.60;99.90;;;;;;5072830;28;20256;-71
2023/05/09 08:42:38;;;;;;;8.57;7.67;;;15.50;99.90;;;;;;5072218;28;20188;-72
2023/05/09 08:45:10;;;;;;;8.80;7.90;;;15.50;99.90;;;;;;5072742;28;20180;-72
2023/05/09 08:47:39;;;;;;;9.13;7.77;;;15.50;99.90;;;;;;5072515;28;20180;-70
2023/05/09 08:50:05;;;;;;;10.00;8.17;;;15.60;99.90;;;;;;5071749;28;20624;-73
2023/05/09 08:52:34;;;;;;;11.33;8.10;;;15.60;99.90;;;;;;5072184;28;20183;-71
2023/05/09 08:55:01;;;;;;;9.00;7.30;;;15.60;99.90;;;;;;5073109;28;20208;-71
2023/05/09 08:57:27;;;;;;;10.47;7.30;;;15.60;99.90;;;;;;5072108;28;20172;-71
2023/05/09 08:59:53;;;;;;;10.73;7.10;;;15.60;99.90;;;;;;5072563;28;20180;-71
2023/05/09 09:02:20;;;;;;;9.87;7.23;;;15.60;99.90;;;;;;5054279;28;20173;-73
2023/05/09 09:04:46;;;;;;;10.33;7.77;;;15.70;99.90;;;;;;5072383;28;20211;-71
2023/05/09 09:07:14;;;;;;;8.00;7.13;;;15.70;99.90;;;;;;5071923;28;20559;-71
2023/05/09 09:09:44;;;;;;;7.77;7.07;;;15.60;99.90;;;;;;5071993;28;20173;-71
2023/05/09 09:12:12;;;;;;;12.07;8.07;;;15.70;99.90;;;;;;5053591;28;20183;-70
2023/05/09 09:14:41;;;;;;;8.07;7.30;;;15.60;99.90;;;;;;5071952;28;20208;-70
2023/05/09 09:17:08;;;;;;;7.43;6.73;;;15.70;99.90;;;;;;5071860;28;20189;-72
2023/05/09 09:19:36;;;;;;;8.77;6.90;;;15.60;99.90;;;;;;5071742;28;20216;-71
2023/05/09 09:22:06;;;;;;;7.40;6.80;;;15.70;99.90;;;;;;5072215;28;20645;-71
2023/05/09 09:24:33;;;;;;;7.57;6.73;;;15.90;99.90;;;;;;5072392;28;20242;-72
2023/05/09 09:27:05;;;;;;;7.43;6.73;;;15.80;99.90;;;;;;5071406;28;20168;-71
2023/05/09 09:29:32;;;;;;;7.73;6.87;;;15.90;99.90;;;;;;5054575;28;20180;-72
2023/05/09 09:32:01;;;;;;;7.20;6.50;;;15.90;99.90;;;;;;5071801;28;20165;-72
2023/05/09 09:34:26;;;;;;;9.70;7.03;;;15.90;99.90;;;;;;5063217;28;20567;-72
2023/05/09 09:36:52;;;;;;;7.30;6.60;;;16.00;99.90;;;;;;5072291;28;20168;-72
2023/05/09 09:39:18;;;;;;;7.03;6.33;;;15.90;99.90;;;;;;5072509;28;20470;-72
2023/05/09 09:41:44;;;;;;;8.83;6.87;;;15.90;99.90;;;;;;5071535;28;20172;-72
2023/05/09 09:44:18;;;;;;;7.97;7.13;;;16.00;99.90;;;;;;5072303;28;20184;-71
2023/05/09 09:46:51;;;;;;;7.57;6.57;;;16.00;99.90;;;;;;5071985;28;20176;-71
2023/05/09 09:49:26;;;;;;;8.53;6.23;;;15.90;99.90;;;;;;5071577;28;20215;-71
2023/05/09 09:51:53;;;;;;;6.80;6.23;;;15.80;99.90;;;;;;5071897;28;20198;-71
2023/05/09 09:54:20;;;;;;;7.63;6.80;;;15.60;99.90;;;;;;5070737;28;20208;-71
2023/05/09 09:56:52;;;;;;;10.33;5.80;;;15.60;99.90;;;;;;5072081;28;20234;-71
2023/05/09 09:59:22;;;;;;;12.63;6.43;;;15.60;99.90;;;;;;5071227;28;20187;-71
2023/05/09 10:02:05;;;;;;;6.73;5.30;;;15.60;99.90;;;;;;5053717;28;20172;-70
2023/05/09 10:04:33;;;;;;;5.10;4.60;;;15.50;99.90;;;;;;5053344;28;20229;-71
2023/05/09 10:07:04;;;;;;;6.43;4.77;;;15.40;99.90;;;;;;5071571;28;20172;-70
2023/05/09 10:09:30;;;;;;;5.50;5.10;;;15.30;99.90;;;;;;5069605;28;20682;-70
2023/05/09 10:12:00;;;;;;;7.83;5.80;;;15.30;99.90;;;;;;5053202;28;20532;-70
2023/05/09 10:14:26;;;;;;;6.23;5.40;;;15.50;99.90;;;;;;5071145;28;20687;-70
2023/05/09 10:16:58;;;;;;;6.70;5.83;;;15.50;99.90;;;;;;5071622;28;20180;-70
2023/05/09 10:19:26;;;;;;;6.90;5.63;;;15.60;99.90;;;;;;5071170;28;20258;-71
2023/05/09 10:22:03;;;;;;;6.33;5.70;;;15.50;99.90;;;;;;5071480;28;20674;-70
2023/05/09 10:24:33;;;;;;;7.77;5.57;;;15.40;99.90;;;;;;5070637;28;20276;-70
2023/05/09 10:27:05;;;;;;;12.47;6.40;;;15.40;99.90;;;;;;5074587;28;20191;-71
2023/05/09 10:29:40;;;;;;;6.47;5.93;;;15.50;99.90;;;;;;5073371;28;20253;-70
2023/05/09 10:32:22;;;;;;;6.93;5.87;;;15.60;99.90;;;;;;5074657;28;20245;-71
2023/05/09 10:34:52;;;;;;;5.97;5.33;;;15.60;99.90;;;;;;5074879;28;20230;-69
2023/05/09 10:37:19;;;;;;;6.57;5.90;;;15.70;99.90;;;;;;5075543;28;20173;-70
2023/05/09 10:39:45;;;;;;;6.33;5.73;;;15.70;99.90;;;;;;5074953;28;20298;-70
2023/05/09 10:42:12;;;;;;;6.60;5.93;;;15.70;99.90;;;;;;5074545;28;20264;-70
2023/05/09 10:44:38;;;;;;;8.43;6.30;;;15.80;99.90;;;;;;5074959;28;20258;-70
2023/05/09 10:47:04;;;;;;;7.40;6.67;;;15.80;99.90;;;;;;5074964;28;20597;-70
2023/05/09 10:49:30;;;;;;;7.37;6.57;;;15.90;99.90;;;;;;5075157;28;20222;-70
2023/05/09 10:51:56;;;;;;;7.90;6.13;;;15.90;99.90;;;;;;5056359;28;20169;-69
2023/05/09 10:54:31;;;;;;;7.77;6.43;;;16.00;99.90;;;;;;5055406;28;20215;-71
2023/05/09 10:56:57;;;;;;;10.97;6.67;;;15.90;99.90;;;;;;5075458;28;20226;-71
2023/05/09 10:59:41;;;;;;;9.60;6.03;;;15.80;99.90;;;;;;5057354;28;20632;-70
2023/05/09 11:02:12;;;;;;;11.33;7.90;;;15.80;99.90;;;;;;5075624;28;20173;-69
2023/05/09 11:04:39;;;;;;;9.57;7.33;;;15.70;99.90;;;;;;5076015;28;20323;-69
2023/05/09 11:07:22;;;;;;;8.30;7.50;;;15.60;99.90;;;;;;5075247;28;20627;-70
2023/05/09 11:10:08;;;;;;;8.63;6.80;;;15.60;99.90;;;;;;5056956;28;20263;-71
2023/05/09 11:12:33;;;;;;;10.90;7.23;;;15.60;99.90;;;;;;5074983;28;20245;-69
2023/05/09 11:15:06;;;;;;;11.63;7.67;;;15.60;99.90;;;;;;5074545;28;20213;-72
2023/05/09 11:17:37;;;;;;;8.57;7.30;;;15.50;99.90;;;;;;5056317;28;20224;-72
2023/05/09 11:20:04;;;;;;;11.40;8.67;;;15.50;99.90;;;;;;5074359;28;20212;-72
2023/05/09 11:22:41;;;;;;;14.43;8.57;;;15.50;99.90;;;;;;5073874;28;20183;-71
2023/05/09 11:25:09;;;;;;;14.33;8.87;;;15.40;99.90;;;;;;5074181;28;20670;-71
2023/05/09 11:27:47;;;;;;;11.57;8.07;;;15.20;99.90;;;;;;5056919;28;20556;-71
2023/05/09 11:30:17;;;;;;;10.60;7.90;;;15.00;99.90;;;;;;5056236;28;20671;-72
2023/05/09 11:32:54;;;;;;;9.60;8.33;;;15.00;99.90;;;;;;5074145;28;20555;-72
2023/05/09 11:35:22;;;;;;;11.07;8.90;;;14.80;99.90;;;;;;5074262;28;20258;-70
2023/05/09 11:38:00;;;;;;;9.83;8.03;;;15.00;99.90;;;;;;5073649;28;20177;-69
2023/05/09 11:40:27;;;;;;;14.00;8.47;;;15.00;99.90;;;;;;5073949;28;20169;-70
2023/05/09 11:42:55;;;;;;;12.50;8.93;;;15.00;99.90;;;;;;5073702;28;20219;-70
2023/05/09 11:45:22;;;;;;;14.70;9.30;;;15.20;99.90;;;;;;5074352;28;20678;-71
2023/05/09 11:47:49;;;;;;;13.93;10.07;;;15.30;99.90;;;;;;5073521;28;20172;-72
2023/05/09 11:50:18;;;;;;;9.63;8.70;;;15.60;99.90;;;;;;5073798;28;20301;-71
2023/05/09 11:52:43;;;;;;;10.67;9.00;;;15.50;99.90;;;;;;5056013;28;20173;-70
2023/05/09 11:55:11;;;;;;;11.20;9.60;;;15.50;99.90;;;;;;5074010;28;20567;-72
2023/05/09 11:57:47;;;;;;;12.60;9.73;;;15.60;99.90;;;;;;5073638;28;20175;-70
2023/05/09 12:00:15;;;;;;;11.13;9.37;;;15.70;99.90;;;;;;5073812;28;20658;-70
2023/05/09 12:02:44;;;;;;;12.30;8.83;;;15.70;99.90;;;;;;5072989;28;20181;-71
2023/05/09 12:05:13;;;;;;;11.57;8.30;;;15.60;99.90;;;;;;5073395;28;20172;-70
2023/05/09 12:07:40;;;;;;;9.13;8.23;;;15.50;99.90;;;;;;5073858;28;20176;-70
2023/05/09 12:10:07;;;;;;;11.50;8.10;;;15.30;99.90;;;;;;5055169;28;20187;-71
2023/05/09 12:12:43;;;;;;;11.30;8.67;;;15.30;99.90;;;;;;5072062;28;20251;-71
2023/05/09 12:15:10;;;;;;;7.53;6.80;;;15.30;99.90;;;;;;5073669;28;20633;-71
2023/05/09 12:17:35;;;;;;;7.37;6.60;;;15.40;99.90;;;;;;5055666;28;20197;-71
2023/05/09 12:20:03;;;;;;;7.90;6.93;;;15.40;99.90;;;;;;5051233;28;20561;-71
2023/05/09 12:22:29;;;;;;;6.23;5.30;;;15.50;99.90;;;;;;5051594;28;20169;-71
2023/05/09 12:24:55;;;;;;;4.57;4.17;;;15.40;99.90;;;;;;5051515;28;20504;-71
2023/05/09 12:27:22;;;;;;;6.80;4.67;;;15.30;99.90;;;;;;5051540;28;20235;-71
2023/05/09 12:29:47;;;;;;;4.13;3.40;;;15.30;99.90;;;;;;5052984;28;20231;-72
2023/05/09 12:32:16;;;;;;;4.50;3.00;;;15.20;99.90;;;;;;5053314;28;20258;-71
2023/05/09 12:34:44;;;;;;;4.83;3.60;;;15.00;99.90;;;;;;5052540;28;20201;-72
2023/05/09 12:37:15;;;;;;;5.93;3.00;;;14.90;99.90;;;;;;5053024;28;20242;-69
2023/05/09 12:39:40;;;;;;;4.87;2.73;;;15.00;99.90;;;;;;5052795;28;20185;-72
2023/05/09 12:42:11;;;;;;;3.97;2.47;;;14.70;99.90;;;;;;5053065;28;20196;-72
2023/05/09 12:44:37;;;;;;;6.00;3.03;;;14.70;99.90;;;;;;5051743;28;20173;-71